• Join FlightAware (Why Join?)
  • Login
  • US Flag 
05:11PM EDT


 

Airport Tracker/Info


-or-


 

Live Flight TrackerFlight Track Log ✈ N231GV ✈ 11-Jul-2013 ✈ KGVE - KDET

Flight Track Log - Related Links

Times and Time Zones

All times are in EDT time to prevent confusion due to time zone crossing. See the N231GV flight status page for this flight to view local times or setup timezone preferences in your user account.

Time Position Orientation Groundspeed Altitude Reporting Facility
EDT Latitude Longitude Course Direction KTS MPH feet Rate Location/Type
05:30PM 38.4039 -78.3711 318° Northwest 109 125 13,000  Level Washington Center
05:32PM 38.4567 -78.4314 318° Northwest 114 131 14,400 660 Climbing Washington Center
05:33PM 38.4831 -78.4589 321° Northwest 119 137 15,100 660 Climbing Washington Center
05:34PM 38.5094 -78.4864 321° Northwest 119 137 15,800 660 Climbing Washington Center
05:35PM 38.5361 -78.5139 321° Northwest 119 137 16,400 300 Climbing Washington Center
05:36PM 38.5664 -78.5444 322° Northwest 124 143 16,400  Level Washington Center
05:37PM 38.6011 -78.5778 323° Northwest 141 162 16,400  Level Washington Center
05:38PM 38.6356 -78.6161 319° Northwest 152 175 16,500  Climbing Washington Center
05:39PM 38.6722 -78.6497 324° Northwest 152 175 16,500  Level Washington Center
05:40PM 38.7089 -78.6883 321° Northwest 157 181 16,500  Level Washington Center
05:41PM 38.7453 -78.7272 320° Northwest 162 186 16,500  Level Washington Center
05:42PM 38.7800 -78.7633 321° Northwest 162 186 16,500  Level Washington Center
05:43PM 38.8144 -78.7994 321° Northwest 162 186 16,500  Level Washington Center
05:44PM 38.8489 -78.8383 319° Northwest 162 186 16,500  Level Washington Center
05:45PM 38.8833 -78.8717 323° Northwest 162 186 16,500  Level Washington Center
05:46PM 38.9156 -78.9106 317° Northwest 162 186 16,500  Level Washington Center
05:47PM 38.9500 -78.9442 323° Northwest 162 186 16,500  Level Washington Center
05:48PM 38.9825 -78.9803 319° Northwest 162 186 16,500  Level Washington Center
05:49PM 39.0169 -79.0167 321° Northwest 162 186 16,500  Level Washington Center
05:50PM 39.0492 -79.0503 321° Northwest 162 186 16,500  Level Washington Center
05:51PM 39.0836 -79.0867 321° Northwest 162 186 16,500  Level Washington Center
05:52PM 39.1158 -79.1231 319° Northwest 162 186 16,500  Level Washington Center
05:53PM 39.1483 -79.1567 321° Northwest 156 180 16,500  Level Washington Center
05:54PM 39.1806 -79.1958 317° Northwest 156 180 16,500  Level Washington Center
05:55PM 39.2128 -79.2269 323° Northwest 156 180 16,500  Level Washington Center
05:57PM 39.2950 -79.3172 320° Northwest 160 184 16,600  Climbing Cleveland Center
05:58PM 39.3269 -79.3567 316° Northwest 160 184 16,600  Level Cleveland Center
05:59PM 39.3606 -79.3936 320° Northwest 160 184 16,600  Level Cleveland Center
06:00PM 39.3944 -79.4308 320° Northwest 160 184 16,600  Level Cleveland Center
06:01PM 39.4281 -79.4678 320° Northwest 160 184 16,600  Level Cleveland Center
06:02PM 39.4597 -79.5078 316° Northwest 160 184 16,600  Level Cleveland Center
06:03PM 39.4933 -79.5475 318° Northwest 160 184 16,600  Level Cleveland Center
06:04PM 39.5269 -79.5847 320° Northwest 165 190 16,600  Level Cleveland Center
06:05PM 39.5586 -79.6244 316° Northwest 165 190 16,600  Level Cleveland Center
06:06PM 39.5944 -79.6617 321° Northwest 165 190 16,600  Level Cleveland Center
06:07PM 39.6281 -79.6989 320° Northwest 165 190 16,600  Level Cleveland Center
06:08PM 39.6639 -79.7389 319° Northwest 165 190 16,600  Level Cleveland Center
06:09PM 39.6994 -79.7792 319° Northwest 165 190 16,600  Level Cleveland Center
06:10PM 39.7331 -79.8164 320° Northwest 165 190 16,600  Level Cleveland Center
06:11PM 39.7689 -79.8567 319° Northwest 165 190 16,600  Level Cleveland Center
06:12PM 39.8067 -79.8994 319° Northwest 165 190 16,600 -60 Level Cleveland Center
06:13PM 39.8422 -79.9397 319° Northwest 170 196 16,500 -60 Descending Cleveland Center
06:14PM 39.8758 -79.9797 318° Northwest 170 196 16,500  Level Cleveland Center
06:15PM 39.9114 -80.0175 321° Northwest 170 196 16,600  Climbing Cleveland Center
06:16PM 39.9472 -80.0578 319° Northwest 170 196 16,500  Descending Cleveland Center
06:17PM 39.9828 -80.0981 319° Northwest 170 196 16,600  Climbing Cleveland Center
06:18PM 40.0164 -80.1386 317° Northwest 170 196 16,500 -60 Descending Cleveland Center
06:19PM 40.0519 -80.1789 319° Northwest 170 196 16,500  Level Cleveland Center
06:20PM 40.0853 -80.2167 319° Northwest 170 196 16,500  Level Cleveland Center
06:21PM 40.1167 -80.2572 315° West 170 196 16,500  Level Cleveland Center
06:22PM 40.1522 -80.2978 319° Northwest 170 196 16,500  Level Cleveland Center
06:23PM 40.1878 -80.3386 319° Northwest 170 196 16,500  Level Cleveland Center
06:24PM 40.2275 -80.3764 324° Northwest 170 196 16,500  Level Cleveland Center
06:25PM 40.2608 -80.4197 315° West 170 196 16,500  Level Cleveland Center
06:26PM 40.2986 -80.4578 322° Northwest 170 196 16,500  Level Cleveland Center
06:27PM 40.3361 -80.5069 315° West 170 196 16,500  Level Cleveland Center
06:28PM 40.3736 -80.5478 320° Northwest 170 196 16,500  Level Cleveland Center
06:29PM 40.4111 -80.5914 318° Northwest 170 196 16,500  Level Cleveland Center
06:30PM 40.4467 -80.6294 321° Northwest 170 196 16,500  Level Cleveland Center
06:31PM 40.4819 -80.6731 317° Northwest 170 196 16,500  Level Cleveland Center
06:32PM 40.5175 -80.7142 319° Northwest 170 196 16,500  Level Cleveland Center
06:33PM 40.5547 -80.7553 320° Northwest 170 196 16,500  Level Cleveland Center
06:34PM 40.5903 -80.7992 317° Northwest 170 196 16,500  Level Cleveland Center
06:35PM 40.6256 -80.8403 319° Northwest 170 196 16,500  Level Cleveland Center
06:36PM 40.6631 -80.8842 318° Northwest 170 196 16,500  Level Cleveland Center
06:37PM 40.7003 -80.9281 318° Northwest 170 196 16,500  Level Cleveland Center
06:38PM 40.7378 -80.9722 318° Northwest 170 196 16,500  Level Cleveland Center
06:39PM 40.7731 -81.0136 318° Northwest 170 196 16,500  Level Cleveland Center
06:40PM 40.8083 -81.0603 315° West 170 196 16,500  Level Cleveland Center
06:41PM 40.8456 -81.1047 318° Northwest 170 196 16,500  Level Cleveland Center
06:42PM 40.8831 -81.1489 318° Northwest 170 196 16,500  Level Cleveland Center
06:43PM 40.9203 -81.1931 318° Northwest 170 196 16,500  Level Cleveland Center
06:44PM 40.9575 -81.2347 320° Northwest 170 196 16,500  Level Cleveland Center
06:45PM 40.9947 -81.2792 318° Northwest 170 196 16,500  Level Cleveland Center
06:46PM 41.0300 -81.3236 316° Northwest 170 196 16,500  Level Cleveland Center
06:47PM 41.0672 -81.3653 320° Northwest 170 196 16,500  Level Cleveland Center
06:48PM 41.1022 -81.4069 318° Northwest 170 196 16,500  Level Cleveland Center
06:49PM 41.1417 -81.4517 320° Northwest 170 196 16,500  Level Cleveland Center
06:50PM 41.1767 -81.4933 318° Northwest 170 196 16,500  Level Cleveland Center
06:51PM 41.2117 -81.5381 316° Northwest 170 196 16,500  Level Cleveland Center
06:52PM 41.2342 -81.5908 300° West 170 196 16,500  Level Cleveland Center
06:53PM 41.2714 -81.6331 320° Northwest 170 196 16,500  Level Cleveland Center
06:54PM 41.3067 -81.6611 329° Northwest 165 190 16,500  Level Cleveland Center
06:55PM 41.3519 -81.7089 322° Northwest 170 196 16,500  Level Cleveland Center
06:56PM 41.3869 -81.7567 314° West 175 201 16,500 -240 Level Cleveland Center
06:57PM 41.4178 -81.8042 311° West 180 207 16,100 -300 Descending Cleveland Center
06:58PM 41.4567 -81.8519 317° Northwest 186 214 15,900 -240 Descending Cleveland Center
06:59PM 41.4958 -81.8972 319° Northwest 186 214 15,700 -300 Descending Cleveland Center
07:00PM 41.5328 -81.9422 318° Northwest 186 214 15,400 -420 Descending Cleveland Center
07:01PM 41.5739 -81.9931 317° Northwest 186 214 14,900 -720 Descending Cleveland Center
07:02PM 41.6131 -82.0383 319° Northwest 186 214 14,000 -1,020 Descending Cleveland Center
07:03PM 41.6622 -82.0953 319° Northwest 194 223 12,900 -1,020 Descending Cleveland Center
07:04PM 41.6992 -82.1378 319° Northwest 194 223 12,000 -960 Descending Cleveland Center
07:05PM 41.7403 -82.1889 317° Northwest 199 229 11,000 -960 Descending Cleveland Center
07:06PM 41.7811 -82.2400 317° Northwest 199 229 10,100 -900 Descending Cleveland Center
07:07PM 41.8200 -82.2883 317° Northwest 199 229 9,200 -960 Descending Cleveland Center
07:08PM 41.8589 -82.3339 319° Northwest 194 223 8,200 -900 Descending Cleveland Center
07:09PM 41.8958 -82.3797 317° Northwest 194 223 7,400 -900 Descending Cleveland Center
07:10PM 41.9325 -82.4253 317° Northwest 189 217 6,500 -900 Descending Cleveland Center
07:11PM 41.9694 -82.4683 319° Northwest 183 211 5,600 -600 Descending Cleveland Center
07:12PM 41.9981 -82.5083 314° West 178 205 5,300 -300 Descending Cleveland Center
07:13PM 42.0328 -82.5483 319° Northwest 166 191 5,000 -300 Descending Cleveland Center
07:14PM 42.0633 -82.5831 320° Northwest 155 178 4,700 -300 Descending Cleveland Center
07:15PM 42.0919 -82.6203 316° Northwest 150 173 4,500 -300 Descending Cleveland Center
07:16PM 42.1225 -82.6603 316° Northwest 150 173 4,200 -360 Descending Cleveland Center
07:17PM 42.1694 -82.7150 319° Northwest 151 174 3,700 -360 Descending Cleveland Center
07:18PM 42.2000 -82.7553 316° Northwest 152 175 3,400 -300 Descending Cleveland Center
07:19PM 42.2347 -82.7903 323° Northwest 150 173 3,100 -360 Descending Cleveland Center
07:20PM 42.2631 -82.8306 314° West 153 176 2,700 -180 Descending Cleveland Center
07:21PM 42.2956 -82.8708 317° Northwest 143 165 2,800  Climbing Cleveland Center
07:23PM 42.3242 -82.9086 316° Northwest 135 155 2,700 -480 Descending Cleveland Center
07:24PM 42.3503 -82.9489 311° West 148 170 1,900 -840 Descending Cleveland Center
07:25PM 42.3811 -82.9808 323° Northwest 129 148 1,100 -840 Descending Cleveland Center
07:27PM 42.4000 -83.0000 324° Northwest  Level FlightAware Approximate
07:34PM 42.4093 -83.0102 324° Northwest  Level Estimated
07:35PM 42.4093 -83.0102 324° Northwest  Level Estimated